createdAt,value
2022-12-20T00:01:29.406Z,100356.56
2022-12-20T00:03:57.461Z,100348.81
2022-12-20T00:06:24.432Z,100342.88
2022-12-20T00:08:55.685Z,100343.00
2022-12-20T00:11:22.732Z,100336.94
2022-12-20T00:13:49.151Z,100330.81
2022-12-20T00:16:21.017Z,100325.50
2022-12-20T00:18:50.437Z,100315.06
2022-12-20T00:21:16.877Z,100324.56
2022-12-20T00:23:43.273Z,100310.59
2022-12-20T00:26:17.797Z,100297.53
2022-12-20T00:28:45.628Z,100293.06
2022-12-20T00:31:13.691Z,100297.44
2022-12-20T00:33:40.638Z,100295.66
2022-12-20T00:36:09.248Z,100303.69
2022-12-20T00:38:36.413Z,100302.00
2022-12-20T00:41:08.084Z,100294.19
2022-12-20T00:43:37.245Z,100292.41
2022-12-20T00:46:04.266Z,100300.19
2022-12-20T00:48:32.672Z,100314.13
2022-12-20T00:51:29.681Z,100305.41
2022-12-20T00:53:56.535Z,100301.09
2022-12-20T00:56:23.045Z,100292.31
2022-12-20T00:58:49.535Z,100301.88
2022-12-20T01:01:20.760Z,100301.97
2022-12-20T01:03:48.514Z,100308.91
2022-12-20T01:06:15.147Z,100320.34
2022-12-20T01:08:41.838Z,100311.69
2022-12-20T01:11:08.198Z,100329.16
2022-12-20T01:13:36.350Z,100326.59
2022-12-20T01:16:23.612Z,100328.47
2022-12-20T01:18:50.234Z,100322.44
2022-12-20T01:21:18.212Z,100322.44
2022-12-20T01:23:44.818Z,100325.84
2022-12-20T01:26:13.144Z,100323.25
2022-12-20T01:28:41.608Z,100313.63
2022-12-20T01:31:14.593Z,100306.56
2022-12-20T01:33:41.109Z,100305.63
2022-12-20T01:36:11.037Z,100300.31
2022-12-20T01:38:37.734Z,100305.47
2022-12-20T01:41:04.494Z,100289.84
2022-12-20T01:43:53.604Z,100279.31
2022-12-20T01:46:22.760Z,100274.03
2022-12-20T01:49:03.065Z,100275.78
2022-12-20T01:51:31.108Z,100268.88
2022-12-20T01:54:05.292Z,100280.25
2022-12-20T01:56:31.909Z,100268.97
2022-12-20T01:58:58.931Z,100270.66
2022-12-20T02:01:25.689Z,100273.22
2022-12-20T02:03:54.347Z,100272.38
2022-12-20T02:06:23.794Z,100261.81
2022-12-20T02:08:54.221Z,100257.50
2022-12-20T02:11:23.709Z,100269.81
2022-12-20T02:14:18.671Z,100275.09
2022-12-20T02:16:57.291Z,100266.47
2022-12-20T02:20:06.713Z,100242.09
2022-12-20T02:22:52.626Z,100241.16
2022-12-20T02:25:44.875Z,100226.31
2022-12-20T02:28:48.871Z,100223.78
2022-12-20T02:31:19.530Z,100230.94
2022-12-20T02:33:48.125Z,100223.16
2022-12-20T02:36:16.657Z,100219.66
2022-12-20T02:38:43.272Z,100220.56
2022-12-20T02:41:19.841Z,100219.63
2022-12-20T02:44:08.571Z,100223.16
2022-12-20T02:46:36.193Z,100204.06
2022-12-20T02:49:19.988Z,100216.31
2022-12-20T02:51:48.165Z,100209.44
2022-12-20T02:54:15.354Z,100188.50
2022-12-20T02:56:45.666Z,100196.34
2022-12-20T02:59:16.856Z,100194.66
2022-12-20T03:01:55.356Z,100191.16
2022-12-20T03:04:28.533Z,100190.31
2022-12-20T03:07:09.786Z,100195.44
2022-12-20T03:09:41.523Z,100197.06
2022-12-20T03:12:09.291Z,100203.94
2022-12-20T03:14:40.573Z,100202.94
2022-12-20T03:17:09.254Z,100206.34
2022-12-20T03:19:38.111Z,100205.44
2022-12-20T03:22:05.671Z,100194.03
2022-12-20T03:24:32.548Z,100187.03
2022-12-20T03:26:59.774Z,100184.53
2022-12-20T03:29:31.411Z,100194.03
2022-12-20T03:31:57.869Z,100198.34
2022-12-20T03:34:24.422Z,100196.56
2022-12-20T03:36:51.295Z,100189.59
2022-12-20T03:39:17.793Z,100179.16
2022-12-20T03:41:44.381Z,100183.47
2022-12-20T03:44:14.614Z,100176.59
2022-12-20T03:46:41.373Z,100174.09
2022-12-20T03:49:08.017Z,100185.16
2022-12-20T03:51:42.059Z,100182.47
2022-12-20T03:54:09.904Z,100167.66
2022-12-20T03:56:57.398Z,100169.44
2022-12-20T03:59:23.923Z,100175.53
2022-12-20T04:01:54.239Z,100159.88
2022-12-20T04:04:21.091Z,100163.19
2022-12-20T04:06:48.431Z,100163.09
2022-12-20T04:09:15.975Z,100162.25
2022-12-20T04:11:47.791Z,100167.38
2022-12-20T04:14:15.373Z,100178.63
2022-12-20T04:16:43.319Z,100170.84
2022-12-20T04:19:11.853Z,100175.16
2022-12-20T04:21:42.589Z,100169.91
2022-12-20T04:24:09.092Z,100162.06
2022-12-20T04:27:07.971Z,100158.75
2022-12-20T04:29:34.778Z,100167.53
2022-12-20T04:32:02.667Z,100176.19
2022-12-20T04:34:29.380Z,100169.97
2022-12-20T04:36:57.216Z,100154.38
2022-12-20T04:39:35.184Z,100150.91
2022-12-20T04:42:18.694Z,100134.31
2022-12-20T04:44:45.418Z,100136.00
2022-12-20T04:47:13.950Z,100135.25
2022-12-20T04:49:41.201Z,100125.69
2022-12-20T04:52:26.238Z,100118.81
2022-12-20T04:54:53.297Z,100115.34
2022-12-20T04:57:25.181Z,100122.31
2022-12-20T04:59:51.887Z,100128.31
2022-12-20T05:02:19.083Z,100135.25
2022-12-20T05:04:53.978Z,100117.88
2022-12-20T05:07:20.846Z,100127.59
2022-12-20T05:09:51.843Z,100143.09
2022-12-20T05:12:18.483Z,100141.22
2022-12-20T05:14:45.210Z,100143.75
2022-12-20T05:17:13.315Z,100130.63
2022-12-20T05:19:39.749Z,100131.41
2022-12-20T05:22:25.446Z,100120.91
2022-12-20T05:25:23.523Z,100129.63
2022-12-20T05:27:51.289Z,100137.25
2022-12-20T05:30:18.328Z,100140.63
2022-12-20T05:32:45.019Z,100131.03
2022-12-20T05:35:11.775Z,100126.56
2022-12-20T05:37:38.887Z,100130.03
2022-12-20T05:40:13.854Z,100132.53
2022-12-20T05:42:40.366Z,100121.25
2022-12-20T05:45:07.975Z,100119.53
2022-12-20T05:47:43.490Z,100127.25
2022-12-20T05:50:18.257Z,100128.09
2022-12-20T05:53:11.216Z,100115.88
2022-12-20T05:55:51.998Z,100121.91
2022-12-20T05:58:19.954Z,100118.41
2022-12-20T06:00:53.618Z,100111.38
2022-12-20T06:03:21.509Z,100106.16
2022-12-20T06:05:49.245Z,100114.72
2022-12-20T06:08:33.193Z,100095.47
2022-12-20T06:11:04.862Z,100110.38
2022-12-20T06:13:35.780Z,100106.06
2022-12-20T06:16:02.445Z,100102.53
2022-12-20T06:18:29.745Z,100100.78
2022-12-20T06:21:00.629Z,100091.97
2022-12-20T06:23:27.827Z,100093.69
2022-12-20T06:26:02.981Z,100090.13
2022-12-20T06:28:32.762Z,100091.03
2022-12-20T06:30:59.248Z,100086.66
2022-12-20T06:33:46.017Z,100080.50
2022-12-20T06:36:15.416Z,100083.00
2022-12-20T06:38:42.827Z,100080.31
2022-12-20T06:41:10.331Z,100073.34
2022-12-20T06:43:37.241Z,100065.50
2022-12-20T06:46:03.814Z,100055.00
2022-12-20T06:48:30.389Z,100058.38
2022-12-20T06:50:57.782Z,100053.88
2022-12-20T06:53:26.383Z,100048.34
2022-12-20T06:55:53.148Z,100058.59
2022-12-20T06:58:21.199Z,100066.38
2022-12-20T07:00:49.056Z,100076.63
2022-12-20T07:03:15.915Z,100086.84
2022-12-20T07:05:42.921Z,100089.44
2022-12-20T07:08:09.418Z,100103.38
2022-12-20T07:10:37.245Z,100100.66
2022-12-20T07:13:03.792Z,100118.09
2022-12-20T07:15:30.274Z,100128.59
2022-12-20T07:17:56.740Z,100126.81
2022-12-20T07:20:23.197Z,100120.72
2022-12-20T07:22:49.711Z,100118.84
2022-12-20T07:25:16.236Z,100119.66
2022-12-20T07:27:47.702Z,100112.53
2022-12-20T07:30:14.697Z,100109.78
2022-12-20T07:32:41.130Z,100082.66
2022-12-20T07:35:08.106Z,100087.81
2022-12-20T07:37:34.507Z,100073.84
2022-12-20T07:40:00.969Z,100064.28
2022-12-20T07:42:35.820Z,100069.53
2022-12-20T07:45:05.671Z,100066.91
2022-12-20T07:47:32.347Z,100071.28
2022-12-20T07:49:59.319Z,100072.03
2022-12-20T07:52:26.894Z,100063.09
2022-12-20T07:54:59.845Z,100061.25
2022-12-20T07:57:30.250Z,100066.25
2022-12-20T07:59:59.710Z,100068.75
2022-12-20T08:02:34.056Z,100073.00
2022-12-20T08:05:02.303Z,100081.75
2022-12-20T08:07:29.277Z,100069.63
2022-12-20T08:09:55.872Z,100058.41
2022-12-20T08:12:22.587Z,100054.97
2022-12-20T08:14:52.291Z,100040.41
2022-12-20T08:17:18.783Z,100047.41
2022-12-20T08:19:45.246Z,100039.78
2022-12-20T08:22:11.733Z,100045.88
2022-12-20T08:24:38.249Z,100036.38
2022-12-20T08:27:04.696Z,100028.53
2022-12-20T08:29:31.157Z,100037.16
2022-12-20T08:31:57.734Z,100022.00
2022-12-20T08:34:24.156Z,100043.16
2022-12-20T08:36:50.627Z,100031.25
2022-12-20T08:39:17.018Z,100036.94
2022-12-20T08:41:43.497Z,100034.88
2022-12-20T08:44:10.685Z,100041.34
2022-12-20T08:46:37.759Z,100024.28
2022-12-20T08:49:05.227Z,100015.00
2022-12-20T08:51:31.828Z,100015.38
2022-12-20T08:53:58.237Z,100023.31
2022-12-20T08:56:24.738Z,100009.69
2022-12-20T08:58:51.216Z,100014.47
2022-12-20T09:01:19.399Z,100006.50
2022-12-20T09:03:46.914Z,100004.16
2022-12-20T09:06:16.602Z,99993.16
2022-12-20T09:08:43.546Z,100001.44
2022-12-20T09:11:12.765Z,99988.81
2022-12-20T09:13:43.958Z,100006.41
2022-12-20T09:16:12.840Z,99984.53
2022-12-20T09:18:39.569Z,99985.72
2022-12-20T09:21:07.129Z,99981.25
2022-12-20T09:23:35.036Z,99999.09
2022-12-20T09:26:06.457Z,99998.88
2022-12-20T09:28:33.925Z,99993.19
2022-12-20T09:31:01.193Z,100009.44
2022-12-20T09:33:28.635Z,100021.63
2022-12-20T09:35:55.344Z,100022.66
2022-12-20T09:38:21.889Z,100027.88
2022-12-20T09:40:51.108Z,100026.16
2022-12-20T09:43:18.371Z,100015.78
2022-12-20T09:45:49.646Z,100009.91
2022-12-20T09:48:19.224Z,100012.53
2022-12-20T09:50:58.674Z,100012.63
2022-12-20T09:53:28.490Z,99995.06
2022-12-20T09:55:59.798Z,99996.00
2022-12-20T09:58:57.566Z,99997.00
2022-12-20T10:01:27.822Z,99995.44
2022-12-20T10:03:59.373Z,99988.66
2022-12-20T10:06:37.908Z,99983.81
2022-12-20T10:09:09.929Z,99970.72
2022-12-20T10:11:51.293Z,99978.53
2022-12-20T10:14:34.347Z,99975.75
2022-12-20T10:17:37.916Z,99980.84
2022-12-20T10:20:19.942Z,99979.75
2022-12-20T10:23:01.864Z,99967.44
2022-12-20T10:25:33.111Z,99978.72
2022-12-20T10:28:02.322Z,99970.09
2022-12-20T10:30:30.000Z,99968.47
2022-12-20T10:32:57.521Z,99962.84
2022-12-20T10:35:29.315Z,99965.41
2022-12-20T10:38:07.673Z,99965.22
2022-12-20T10:41:18.767Z,99960.75
2022-12-20T10:43:27.247Z,99959.97
2022-12-20T10:46:07.326Z,99968.75
2022-12-20T10:48:39.475Z,99951.91
2022-12-20T10:51:16.147Z,99959.81
2022-12-20T10:53:57.307Z,99949.44
2022-12-20T10:56:31.660Z,99941.44
2022-12-20T10:59:03.832Z,99942.22
2022-12-20T11:01:34.092Z,99933.22
2022-12-20T11:04:21.434Z,99930.50
2022-12-20T11:06:47.955Z,99939.06
2022-12-20T11:09:32.144Z,99934.69
2022-12-20T11:12:03.436Z,99925.75
2022-12-20T11:14:38.257Z,99917.09
2022-12-20T11:17:33.538Z,99915.38
2022-12-20T11:20:26.783Z,99919.81
2022-12-20T11:23:25.723Z,99923.03
2022-12-20T11:26:29.377Z,99922.69
2022-12-20T11:29:27.784Z,99904.84
2022-12-20T11:32:10.028Z,99902.69
2022-12-20T11:34:52.025Z,99893.69
2022-12-20T11:37:23.844Z,99890.59
2022-12-20T11:39:59.165Z,99878.78
2022-12-20T11:42:38.818Z,99874.00
2022-12-20T11:45:13.741Z,99875.50
2022-12-20T11:48:04.844Z,99870.06
2022-12-20T11:50:50.167Z,99862.75
2022-12-20T11:53:38.594Z,99866.44
2022-12-20T11:56:10.018Z,99870.09
2022-12-20T11:58:48.431Z,99865.13
2022-12-20T12:01:20.949Z,99866.19
2022-12-20T12:04:00.785Z,99865.81
2022-12-20T12:06:30.880Z,99847.16
2022-12-20T12:09:14.337Z,99841.72
2022-12-20T12:14:50.187Z,99842.63
2022-12-20T12:17:32.550Z,99835.56
2022-12-20T12:20:16.710Z,99835.84
2022-12-20T12:22:44.671Z,99823.97
2022-12-20T12:25:14.644Z,99833.97
2022-12-20T12:27:41.213Z,99827.06
2022-12-20T12:30:13.064Z,99820.97
2022-12-20T12:32:45.026Z,99821.81
2022-12-20T12:35:39.389Z,99820.88
2022-12-20T12:38:14.624Z,99827.19
2022-12-20T12:41:03.540Z,99826.50
2022-12-20T12:43:51.907Z,99822.28
2022-12-20T12:46:31.330Z,99815.59
2022-12-20T12:48:59.610Z,99809.69
2022-12-20T12:51:37.835Z,99793.59
2022-12-20T12:54:10.006Z,99782.22
2022-12-20T12:56:44.660Z,99787.78
2022-12-20T12:59:12.106Z,99776.44
2022-12-20T13:01:56.870Z,99781.47
2022-12-20T13:04:26.747Z,99770.03
2022-12-20T13:07:24.646Z,99775.00
2022-12-20T13:09:51.134Z,99759.56
2022-12-20T13:12:49.786Z,99774.69
2022-12-20T13:15:22.653Z,99777.88
2022-12-20T13:17:59.796Z,99764.94
2022-12-20T13:20:27.439Z,99752.78
2022-12-20T13:23:09.097Z,99753.00
2022-12-20T13:25:49.554Z,99756.59
2022-12-20T13:28:16.629Z,99765.91
2022-12-20T13:30:47.985Z,99775.09
2022-12-20T13:33:38.516Z,99759.53
2022-12-20T13:36:37.743Z,99755.38
2022-12-20T13:39:24.921Z,99757.44
2022-12-20T13:42:06.555Z,99738.22
2022-12-20T13:44:40.009Z,99756.47
2022-12-20T13:47:14.488Z,99766.88
2022-12-20T13:49:42.779Z,99767.69
2022-12-20T13:52:09.106Z,99758.56
2022-12-20T13:54:40.199Z,99747.78
2022-12-20T13:57:07.887Z,99739.94
2022-12-20T13:59:34.406Z,99755.41
2022-12-20T14:02:04.505Z,99753.84
2022-12-20T14:04:42.888Z,99771.22
2022-12-20T14:07:13.611Z,99765.91
2022-12-20T14:09:43.620Z,99767.00
2022-12-20T14:12:23.269Z,99763.81
2022-12-20T14:14:53.379Z,99762.25
2022-12-20T14:17:33.083Z,99755.38
2022-12-20T14:20:17.326Z,99750.91
2022-12-20T14:23:05.491Z,99759.09
2022-12-20T14:25:40.580Z,99750.00
2022-12-20T14:28:26.973Z,99753.81
2022-12-20T14:30:55.271Z,99744.91
2022-12-20T14:33:28.810Z,99737.31
2022-12-20T14:35:55.234Z,99729.97
2022-12-20T14:38:24.728Z,99721.84
2022-12-20T14:40:54.143Z,99713.78
2022-12-20T14:43:27.240Z,99711.88
2022-12-20T14:46:17.133Z,99706.78
2022-12-20T14:48:43.847Z,99714.84
2022-12-20T14:51:10.353Z,99724.50
2022-12-20T14:53:37.894Z,99717.16
2022-12-20T14:56:04.485Z,99714.19
2022-12-20T14:58:34.516Z,99705.41
2022-12-20T15:01:21.904Z,99698.03
2022-12-20T15:03:57.116Z,99700.28
2022-12-20T15:06:44.155Z,99695.94
2022-12-20T15:09:10.664Z,99695.19
2022-12-20T15:11:38.065Z,99695.72
2022-12-20T15:14:27.248Z,99704.06
2022-12-20T15:16:53.564Z,99707.91
2022-12-20T15:19:20.976Z,99710.25
2022-12-20T15:21:47.487Z,99692.56
2022-12-20T15:24:19.760Z,99701.56
2022-12-20T15:26:46.306Z,99717.03
2022-12-20T15:29:20.492Z,99705.06
2022-12-20T15:31:47.453Z,99697.66
2022-12-20T15:34:16.027Z,99701.16
2022-12-20T15:36:42.693Z,99699.16
2022-12-20T15:39:12.908Z,99691.09
2022-12-20T15:41:43.585Z,99693.16
2022-12-20T15:44:23.762Z,99690.41
2022-12-20T15:46:50.663Z,99688.50
2022-12-20T15:49:19.232Z,99671.88
2022-12-20T15:51:47.456Z,99686.81
2022-12-20T15:54:24.064Z,99684.91
2022-12-20T15:56:51.250Z,99694.53
2022-12-20T15:59:57.531Z,99685.13
2022-12-20T16:02:12.098Z,99688.50
2022-12-20T16:04:38.793Z,99685.13
2022-12-20T16:07:13.674Z,99683.34
2022-12-20T16:09:40.132Z,99677.06
2022-12-20T16:12:14.466Z,99672.00
2022-12-20T16:14:40.852Z,99685.56
2022-12-20T16:17:12.783Z,99671.38
2022-12-20T16:19:39.264Z,99676.66
2022-12-20T16:22:05.785Z,99680.06
2022-12-20T16:24:32.279Z,99684.06
2022-12-20T16:26:58.733Z,99673.06
2022-12-20T16:29:25.253Z,99683.66
2022-12-20T16:31:51.778Z,99691.25
2022-12-20T16:34:18.786Z,99689.00
2022-12-20T16:36:46.339Z,99675.22
2022-12-20T16:39:12.805Z,99685.22
2022-12-20T16:41:44.752Z,99693.19
2022-12-20T16:44:15.233Z,99677.63
2022-12-20T16:46:42.217Z,99684.59
2022-12-20T16:49:14.858Z,99688.63
2022-12-20T16:51:47.899Z,99673.84
2022-12-20T16:54:21.067Z,99675.91
2022-12-20T16:56:50.963Z,99668.00
2022-12-20T16:59:21.339Z,99666.94
2022-12-20T17:01:49.891Z,99676.25
2022-12-20T17:04:18.102Z,99669.25
2022-12-20T17:06:44.976Z,99672.03
2022-12-20T17:09:12.038Z,99669.38
2022-12-20T17:11:38.984Z,99670.56
2022-12-20T17:14:12.064Z,99668.38
2022-12-20T17:16:39.635Z,99656.59
2022-12-20T17:19:06.358Z,99658.78
2022-12-20T17:24:23.597Z,99664.31
2022-12-20T17:26:50.116Z,99652.53
2022-12-20T17:29:17.672Z,99654.34
2022-12-20T17:31:46.274Z,99657.63
2022-12-20T17:34:25.013Z,99647.00
2022-12-20T17:36:54.199Z,99645.66
2022-12-20T17:39:21.796Z,99644.81
2022-12-20T17:41:51.518Z,99640.47
2022-12-20T17:44:20.679Z,99644.00
2022-12-20T17:46:47.737Z,99633.75
2022-12-20T17:49:14.757Z,99639.28
2022-12-20T17:51:41.242Z,99640.13
2022-12-20T17:54:16.149Z,99621.22
2022-12-20T17:56:42.735Z,99633.63
2022-12-20T17:59:09.523Z,99631.91
2022-12-20T18:01:36.165Z,99639.78
2022-12-20T18:04:07.119Z,99646.16
2022-12-20T18:06:37.503Z,99647.09
2022-12-20T18:09:05.058Z,99639.88
2022-12-20T18:11:32.677Z,99641.69
2022-12-20T18:14:00.180Z,99634.06
2022-12-20T18:16:28.854Z,99640.72
2022-12-20T18:18:55.599Z,99642.50
2022-12-20T18:21:23.806Z,99637.22
2022-12-20T18:23:50.437Z,99636.06
2022-12-20T18:26:16.783Z,99639.06
2022-12-20T18:28:45.473Z,99647.63
2022-12-20T18:31:14.483Z,99639.56
2022-12-20T18:33:40.985Z,99643.03
2022-12-20T18:36:15.571Z,99630.88
2022-12-20T18:38:43.648Z,99619.78
2022-12-20T18:41:15.516Z,99630.50
2022-12-20T18:43:42.439Z,99629.75
2022-12-20T18:46:13.712Z,99629.88
2022-12-20T18:48:41.402Z,99639.53
2022-12-20T18:51:13.374Z,99634.34
2022-12-20T18:53:41.853Z,99633.63
2022-12-20T18:56:16.578Z,99619.75
2022-12-20T18:58:44.271Z,99622.66
2022-12-20T19:01:13.536Z,99617.69
2022-12-20T19:03:39.959Z,99610.81
2022-12-20T19:06:07.085Z,99613.09
2022-12-20T19:08:33.619Z,99613.09
2022-12-20T19:11:05.779Z,99602.63
2022-12-20T19:13:32.197Z,99611.28
2022-12-20T19:16:03.601Z,99602.38
2022-12-20T19:18:30.556Z,99605.03
2022-12-20T19:21:05.524Z,99608.88
2022-12-20T19:23:32.183Z,99605.16
2022-12-20T19:26:05.250Z,99606.97
2022-12-20T19:28:32.870Z,99605.41
2022-12-20T19:31:05.811Z,99601.75
2022-12-20T19:33:32.308Z,99591.16
2022-12-20T19:35:58.701Z,99597.28
2022-12-20T19:38:25.084Z,99611.03
2022-12-20T19:40:54.587Z,99610.69
2022-12-20T19:43:21.108Z,99606.22
2022-12-20T19:45:47.724Z,99608.75
2022-12-20T19:48:14.389Z,99610.31
2022-12-20T19:50:40.839Z,99611.06
2022-12-20T19:53:07.356Z,99616.25
2022-12-20T19:55:33.795Z,99614.09
2022-12-20T19:58:00.408Z,99616.28
2022-12-20T20:00:27.331Z,99629.75
2022-12-20T20:02:53.927Z,99637.53
2022-12-20T20:05:20.481Z,99635.56
2022-12-20T20:07:46.962Z,99639.81
2022-12-20T20:10:13.407Z,99644.38
2022-12-20T20:12:39.854Z,99642.44
2022-12-20T20:15:06.943Z,99657.84
2022-12-20T20:17:33.360Z,99651.22
2022-12-20T20:19:59.763Z,99647.69
2022-12-20T20:22:26.172Z,99650.50
2022-12-20T20:24:52.556Z,99661.09
2022-12-20T20:27:19.129Z,99649.56
2022-12-20T20:29:49.039Z,99657.38
2022-12-20T20:32:15.491Z,99658.13
2022-12-20T20:34:41.930Z,99647.75
2022-12-20T20:37:09.087Z,99670.44
2022-12-20T20:39:35.720Z,99664.81
2022-12-20T20:42:02.175Z,99664.53
2022-12-20T20:44:28.644Z,99665.72
2022-12-20T20:46:55.186Z,99648.59
2022-12-20T20:49:21.747Z,99652.84
2022-12-20T20:51:48.160Z,99646.41
2022-12-20T20:54:15.173Z,99653.00
2022-12-20T20:56:41.594Z,99658.47
2022-12-20T20:59:11.922Z,99643.34
2022-12-20T21:01:43.877Z,99654.44
2022-12-20T21:04:10.695Z,99643.75
2022-12-20T21:06:41.192Z,99644.81
2022-12-20T21:09:08.443Z,99643.03
2022-12-20T21:11:36.778Z,99639.53
2022-12-20T21:14:03.417Z,99638.81
2022-12-20T21:16:29.987Z,99639.88
2022-12-20T21:18:57.981Z,99629.31
2022-12-20T21:21:25.632Z,99638.19
2022-12-20T21:23:53.193Z,99639.97
2022-12-20T21:26:20.880Z,99634.69
2022-12-20T21:28:47.743Z,99637.44
2022-12-20T21:31:16.829Z,99627.81
2022-12-20T21:33:45.633Z,99627.72
2022-12-20T21:36:15.337Z,99622.88
2022-12-20T21:38:42.131Z,99617.59
2022-12-20T21:41:11.484Z,99613.13
2022-12-20T21:43:37.876Z,99614.06
2022-12-20T21:46:04.491Z,99605.19
2022-12-20T21:48:30.958Z,99598.34
2022-12-20T21:51:02.184Z,99607.31
2022-12-20T21:53:29.558Z,99607.44
2022-12-20T21:55:56.790Z,99603.94
2022-12-20T21:58:27.793Z,99596.34
2022-12-20T22:00:55.593Z,99600.03
2022-12-20T22:03:23.102Z,99606.06
2022-12-20T22:05:53.805Z,99608.91
2022-12-20T22:08:20.840Z,99602.06
2022-12-20T22:10:47.310Z,99606.06
2022-12-20T22:13:13.735Z,99597.94
2022-12-20T22:15:40.723Z,99591.69
2022-12-20T22:18:08.184Z,99593.47
2022-12-20T22:20:35.362Z,99590.81
2022-12-20T22:23:02.295Z,99595.94
2022-12-20T22:25:28.965Z,99597.59
2022-12-20T22:27:55.489Z,99586.19
2022-12-20T22:30:21.935Z,99586.94
2022-12-20T22:32:48.383Z,99587.66
2022-12-20T22:35:22.272Z,99587.56
2022-12-20T22:37:49.255Z,99582.38
2022-12-20T22:40:15.736Z,99583.13
2022-12-20T22:42:42.173Z,99583.84
2022-12-20T22:45:09.378Z,99577.63
2022-12-20T22:47:35.865Z,99582.19
2022-12-20T22:50:02.631Z,99585.53
2022-12-20T22:52:29.037Z,99580.25
2022-12-20T22:54:56.439Z,99570.63
2022-12-20T22:57:23.973Z,99573.19
2022-12-20T22:59:50.380Z,99569.56
2022-12-20T23:02:16.939Z,99581.53
2022-12-20T23:04:43.502Z,99576.88
2022-12-20T23:07:09.967Z,99578.34
2022-12-20T23:09:36.436Z,99569.34
2022-12-20T23:12:21.466Z,99579.78
2022-12-20T23:15:06.564Z,99567.22
2022-12-20T23:17:33.193Z,99578.63
2022-12-20T23:20:18.277Z,99562.66
2022-12-20T23:22:45.015Z,99559.91
2022-12-20T23:25:16.879Z,99563.38
2022-12-20T23:27:45.035Z,99571.13
2022-12-20T23:30:14.542Z,99569.06
2022-12-20T23:32:44.531Z,99573.19
2022-12-20T23:35:12.937Z,99577.94
2022-12-20T23:37:39.764Z,99565.09
2022-12-20T23:40:07.469Z,99564.88
2022-12-20T23:42:33.921Z,99571.97
2022-12-20T23:45:00.335Z,99557.78
2022-12-20T23:47:26.884Z,99571.00
2022-12-20T23:49:53.364Z,99566.69
2022-12-20T23:52:19.817Z,99564.16
2022-12-20T23:54:46.241Z,99566.16
2022-12-20T23:57:13.197Z,99572.53
2022-12-20T23:59:39.744Z,99571.47
